Time,TemperatureF,DewpointF,PressureIn,WindDirection,WindDirectionDegrees,WindSpeedMPH,WindSpeedGustMPH,Humidity,HourlyPrecipIn,Conditions,Clouds,dailyrainin,SoftwareType,DateUTC
2013-05-18 00:08:00,48.3,46.0,29.88,NW,315,0.0,0.0,92,0.03,,,0.00,weatherlink.com 1.10,2013-05-18 06:08:00,
2013-05-18 00:23:00,48.4,46.0,29.88,NW,306,0.0,0.0,92,0.02,,,0.01,weatherlink.com 1.10,2013-05-18 06:23:00,
2013-05-18 00:38:00,48.3,46.0,29.88,NW,306,0.0,0.0,93,0.01,,,0.01,weatherlink.com 1.10,2013-05-18 06:38:00,
2013-05-18 00:53:00,48.2,46.0,29.88,West,276,0.0,0.0,93,0.01,,,0.01,weatherlink.com 1.10,2013-05-18 06:53:00,
2013-05-18 01:08:00,48.2,46.0,29.88,West,277,0.0,0.0,93,0.01,,,0.01,weatherlink.com 1.10,2013-05-18 07:08:00,
2013-05-18 01:23:00,48.2,46.0,29.87,West,279,0.0,0.0,93,0.00,,,0.01,weatherlink.com 1.10,2013-05-18 07:23:00,
2013-05-18 01:38:00,48.2,46.0,29.88,West,279,0.0,0.0,92,0.00,,,0.01,weatherlink.com 1.10,2013-05-18 07:38:00,
2013-05-18 01:53:00,48.1,46.0,29.88,WNW,290,0.0,0.0,93,0.00,,,0.01,weatherlink.com 1.10,2013-05-18 07:53:00,
2013-05-18 02:08:00,48.2,46.0,29.88,West,275,0.0,0.0,93,0.00,,,0.01,weatherlink.com 1.10,2013-05-18 08:08:00,
2013-05-18 02:23:00,48.2,46.0,29.88,West,275,0.0,0.0,92,0.00,,,0.01,weatherlink.com 1.10,2013-05-18 08:23:00,
2013-05-18 02:38:00,48.2,46.0,29.87,West,275,0.0,0.0,91,0.00,,,0.01,weatherlink.com 1.10,2013-05-18 08:38:00,
2013-05-18 02:53:00,48.4,46.0,29.87,West,276,0.0,0.0,92,0.00,,,0.01,weatherlink.com 1.10,2013-05-18 08:53:00,
2013-05-18 03:08:00,48.2,46.0,29.87,West,276,0.0,0.0,93,0.00,,,0.01,weatherlink.com 1.10,2013-05-18 09:08:00,
2013-05-18 03:23:00,48.1,46.0,29.87,West,276,0.0,0.0,93,0.00,,,0.01,weatherlink.com 1.10,2013-05-18 09:23:00,
2013-05-18 03:38:00,48.2,46.0,29.87,West,275,0.0,0.0,93,0.00,,,0.01,weatherlink.com 1.10,2013-05-18 09:38:00,
2013-05-18 03:53:00,48.1,46.0,29.87,West,276,0.0,0.0,93,0.00,,,0.01,weatherlink.com 1.10,2013-05-18 09:53:00,
2013-05-18 04:08:00,48.1,46.0,29.87,West,276,0.0,0.0,93,0.00,,,0.01,weatherlink.com 1.10,2013-05-18 10:08:00,
2013-05-18 04:23:00,48.1,47.0,29.87,West,276,0.0,0.0,94,0.00,,,0.01,weatherlink.com 1.10,2013-05-18 10:23:00,
2013-05-18 04:38:00,47.9,46.0,29.87,West,276,0.0,0.0,94,0.00,,,0.01,weatherlink.com 1.10,2013-05-18 10:38:00,
2013-05-18 04:53:00,47.9,46.0,29.87,West,276,0.0,0.0,94,0.00,,,0.01,weatherlink.com 1.10,2013-05-18 10:53:00,
2013-05-18 05:08:00,47.9,46.0,29.87,West,276,0.0,0.0,93,0.00,,,0.01,weatherlink.com 1.10,2013-05-18 11:08:00,
2013-05-18 05:23:00,47.9,46.0,29.87,West,276,0.0,0.0,94,0.00,,,0.01,weatherlink.com 1.10,2013-05-18 11:23:00,
2013-05-18 05:38:00,47.9,46.0,29.87,West,276,0.0,0.0,94,0.00,,,0.01,weatherlink.com 1.10,2013-05-18 11:38:00,
2013-05-18 05:54:00,48.0,46.0,29.87,West,276,0.0,0.0,94,0.00,,,0.01,weatherlink.com 1.10,2013-05-18 11:54:00,
2013-05-18 06:09:00,47.9,46.0,29.87,West,276,0.0,0.0,94,0.00,,,0.01,weatherlink.com 1.10,2013-05-18 12:09:00,
2013-05-18 06:24:00,48.1,47.0,29.88,West,276,0.0,0.0,94,0.00,,,0.01,weatherlink.com 1.10,2013-05-18 12:24:00,
2013-05-18 06:39:00,48.2,47.0,29.88,West,276,0.0,0.0,94,0.00,,,0.01,weatherlink.com 1.10,2013-05-18 12:39:00,
2013-05-18 06:54:00,48.3,47.0,29.88,West,276,0.0,0.0,94,0.00,,,0.01,weatherlink.com 1.10,2013-05-18 12:54:00,
2013-05-18 07:09:00,48.4,47.0,29.89,West,276,0.0,0.0,94,0.00,,,0.01,weatherlink.com 1.10,2013-05-18 13:09:00,
2013-05-18 07:24:00,48.4,47.0,29.89,West,277,0.0,0.0,94,0.00,,,0.01,weatherlink.com 1.10,2013-05-18 13:24:00,
2013-05-18 07:39:00,48.3,46.0,29.89,West,277,0.0,0.0,93,0.00,,,0.01,weatherlink.com 1.10,2013-05-18 13:39:00,
2013-05-18 07:54:00,48.5,47.0,29.89,West,277,0.0,0.0,93,0.00,,,0.01,weatherlink.com 1.10,2013-05-18 13:54:00,
2013-05-18 08:09:00,48.9,47.0,29.89,West,277,0.0,0.0,93,0.00,,,0.01,weatherlink.com 1.10,2013-05-18 14:09:00,
2013-05-18 08:24:00,49.2,47.0,29.89,West,277,0.0,0.0,92,0.00,,,0.01,weatherlink.com 1.10,2013-05-18 14:24:00,
2013-05-18 08:39:00,49.4,47.0,29.90,West,276,0.0,0.0,92,0.00,,,0.01,weatherlink.com 1.10,2013-05-18 14:39:00,
2013-05-18 08:54:00,49.5,47.0,29.90,WSW,242,0.0,0.0,91,0.00,,,0.01,weatherlink.com 1.10,2013-05-18 14:54:00,
2013-05-18 09:09:00,49.6,47.0,29.90,SSW,195,0.0,0.0,90,0.00,,,0.01,weatherlink.com 1.10,2013-05-18 15:09:00,
2013-05-18 09:24:00,49.7,47.0,29.90,SSW,195,0.0,0.0,89,0.00,,,0.01,weatherlink.com 1.10,2013-05-18 15:24:00,
2013-05-18 09:39:00,50.0,46.0,29.89,SSW,195,0.0,0.0,86,0.00,,,0.01,weatherlink.com 1.10,2013-05-18 15:39:00,
2013-05-18 09:54:00,50.8,47.0,29.89,SSW,195,0.0,1.0,85,0.00,,,0.01,weatherlink.com 1.10,2013-05-18 15:54:00,
2013-05-18 10:09:00,51.5,47.0,29.89,SSW,195,0.0,0.0,83,0.00,,,0.01,weatherlink.com 1.10,2013-05-18 16:09:00,
2013-05-18 10:24:00,52.2,47.0,29.89,SSW,195,0.0,0.0,81,0.00,,,0.01,weatherlink.com 1.10,2013-05-18 16:24:00,
2013-05-18 10:39:00,53.0,47.0,29.89,SSW,195,0.0,0.0,79,0.00,,,0.01,weatherlink.com 1.10,2013-05-18 16:39:00,
2013-05-18 10:54:00,54.0,48.0,29.88,ESE,112,0.0,0.0,80,0.00,,,0.01,weatherlink.com 1.10,2013-05-18 16:54:00,
2013-05-18 11:09:00,54.8,46.0,29.88,SSE,157,0.0,0.0,73,0.00,,,0.01,weatherlink.com 1.10,2013-05-18 17:09:00,
2013-05-18 11:24:00,56.2,47.0,29.88,NNE,17,0.0,0.0,72,0.00,,,0.01,weatherlink.com 1.10,2013-05-18 17:24:00,
2013-05-18 11:39:00,56.2,47.0,29.88,NW,313,0.0,0.0,71,0.00,,,0.01,weatherlink.com 1.10,2013-05-18 17:39:00,
2013-05-18 11:54:00,55.7,47.0,29.87,NNW,329,0.0,2.0,72,0.00,,,0.01,weatherlink.com 1.10,2013-05-18 17:54:00,
2013-05-18 12:09:00,55.5,47.0,29.87,NNW,348,2.0,4.0,72,0.00,,,0.01,weatherlink.com 1.10,2013-05-18 18:09:00,
2013-05-18 12:24:00,55.8,47.0,29.87,NNW,327,0.0,4.0,72,0.00,,,0.01,weatherlink.com 1.10,2013-05-18 18:24:00,
2013-05-18 12:39:00,56.2,47.0,29.87,North,360,3.0,4.0,71,0.00,,,0.01,weatherlink.com 1.10,2013-05-18 18:39:00,
2013-05-18 12:54:00,56.5,46.0,29.87,NNE,15,3.0,4.0,69,0.00,,,0.01,weatherlink.com 1.10,2013-05-18 18:54:00,
2013-05-18 13:09:00,57.2,47.0,29.86,North,351,4.0,5.0,68,0.00,,,0.01,weatherlink.com 1.10,2013-05-18 19:09:00,
2013-05-18 13:24:00,58.5,47.0,29.86,North,9,5.0,6.0,65,0.00,,,0.01,weatherlink.com 1.10,2013-05-18 19:24:00,
2013-05-18 13:39:00,59.6,46.0,29.86,NE,44,0.0,4.0,62,0.00,,,0.01,weatherlink.com 1.10,2013-05-18 19:39:00,
2013-05-18 13:54:00,59.4,46.0,29.85,NNW,327,0.0,3.0,61,0.00,,,0.01,weatherlink.com 1.10,2013-05-18 19:54:00,
2013-05-18 14:09:00,60.9,47.0,29.85,ENE,65,0.0,5.0,60,0.00,,,0.01,weatherlink.com 1.10,2013-05-18 20:09:00,
2013-05-18 14:24:00,62.0,46.0,29.84,NE,51,4.0,5.0,56,0.00,,,0.01,weatherlink.com 1.10,2013-05-18 20:24:00,
2013-05-18 14:40:00,62.4,46.0,29.84,South,171,1.0,6.0,55,0.00,,,0.01,weatherlink.com 1.10,2013-05-18 20:40:00,
2013-05-18 14:55:00,63.1,46.0,29.84,East,101,0.0,7.0,54,0.00,,,0.01,weatherlink.com 1.10,2013-05-18 20:55:00,
2013-05-18 15:10:00,62.7,46.0,29.83,North,351,2.0,7.0,55,0.00,,,0.01,weatherlink.com 1.10,2013-05-18 21:10:00,
2013-05-18 15:25:00,61.5,45.0,29.83,WNW,289,3.0,7.0,55,0.00,,,0.01,weatherlink.com 1.10,2013-05-18 21:25:00,
2013-05-18 15:40:00,61.7,46.0,29.82,NW,314,0.0,7.0,56,0.00,,,0.01,weatherlink.com 1.10,2013-05-18 21:40:00,
2013-05-18 15:55:00,61.3,46.0,29.82,WNW,298,8.0,10.0,57,0.00,,,0.01,weatherlink.com 1.10,2013-05-18 21:55:00,
2013-05-18 16:10:00,62.7,46.0,29.83,WNW,293,9.0,13.0,54,0.00,,,0.01,weatherlink.com 1.10,2013-05-18 22:10:00,
2013-05-18 16:25:00,62.8,46.0,29.83,NNW,348,8.0,13.0,54,0.00,,,0.01,weatherlink.com 1.10,2013-05-18 22:25:00,
2013-05-18 16:40:00,61.7,47.0,29.84,NW,308,10.0,16.0,58,0.00,,,0.01,weatherlink.com 1.10,2013-05-18 22:40:00,
2013-05-18 16:55:00,59.0,44.0,29.85,NNW,340,3.0,11.0,58,0.00,,,0.01,weatherlink.com 1.10,2013-05-18 22:55:00,
2013-05-18 17:10:00,57.8,46.0,29.86,ENE,69,2.0,11.0,64,0.00,,,0.01,weatherlink.com 1.10,2013-05-18 23:10:00,
2013-05-18 17:25:00,56.3,46.0,29.86,North,349,1.0,9.0,68,0.00,,,0.01,weatherlink.com 1.10,2013-05-18 23:25:00,
2013-05-18 17:40:00,56.0,46.0,29.87,North,360,4.0,8.0,70,0.00,,,0.01,weatherlink.com 1.10,2013-05-18 23:40:00,
2013-05-18 17:55:00,56.2,47.0,29.87,NNE,26,1.0,7.0,71,0.00,,,0.01,weatherlink.com 1.10,2013-05-18 23:55:00,
2013-05-18 18:10:00,56.3,47.0,29.87,NE,51,1.0,8.0,70,0.00,,,0.01,weatherlink.com 1.10,2013-05-19 00:10:00,
2013-05-18 18:25:00,56.5,46.0,29.88,NNW,342,4.0,7.0,69,0.00,,,0.01,weatherlink.com 1.10,2013-05-19 00:25:00,
2013-05-18 18:40:00,56.7,45.0,29.88,NNE,12,0.0,4.0,66,0.00,,,0.01,weatherlink.com 1.10,2013-05-19 00:40:00,
2013-05-18 18:55:00,56.9,46.0,29.88,North,360,0.0,1.0,68,0.00,,,0.01,weatherlink.com 1.10,2013-05-19 00:55:00,
2013-05-18 19:10:00,57.1,46.0,29.88,North,5,1.0,4.0,66,0.00,,,0.01,weatherlink.com 1.10,2013-05-19 01:10:00,
2013-05-18 19:25:00,57.6,46.0,29.88,ENE,62,0.0,2.0,65,0.00,,,0.01,weatherlink.com 1.10,2013-05-19 01:25:00,
2013-05-18 19:40:00,57.5,47.0,29.88,WSW,253,6.0,7.0,67,0.00,,,0.01,weatherlink.com 1.10,2013-05-19 01:40:00,
2013-05-18 19:55:00,56.8,46.0,29.88,WSW,257,0.0,2.0,67,0.00,,,0.01,weatherlink.com 1.10,2013-05-19 01:55:00,
2013-05-18 20:10:00,56.7,46.0,29.89,WSW,257,0.0,0.0,67,0.00,,,0.01,weatherlink.com 1.10,2013-05-19 02:10:00,
2013-05-18 20:25:00,56.4,47.0,29.89,WSW,258,0.0,0.0,71,0.00,,,0.01,weatherlink.com 1.10,2013-05-19 02:25:00,
2013-05-18 20:40:00,55.6,48.0,29.89,West,263,0.0,0.0,75,0.00,,,0.01,weatherlink.com 1.10,2013-05-19 02:40:00,
2013-05-18 20:55:00,54.8,47.0,29.90,West,266,4.0,5.0,76,0.00,,,0.01,weatherlink.com 1.10,2013-05-19 02:55:00,
2013-05-18 21:10:00,54.0,47.0,29.90,NW,311,3.0,6.0,77,0.00,,,0.01,weatherlink.com 1.10,2013-05-19 03:10:00,
2013-05-18 21:25:00,54.2,46.0,29.91,WNW,301,0.0,4.0,74,0.00,,,0.01,weatherlink.com 1.10,2013-05-19 03:25:00,
2013-05-18 21:40:00,54.2,45.0,29.91,NW,304,7.0,11.0,70,0.00,,,0.01,weatherlink.com 1.10,2013-05-19 03:40:00,
2013-05-18 21:55:00,53.6,46.0,29.92,NW,319,3.0,8.0,74,0.00,,,0.01,weatherlink.com 1.10,2013-05-19 03:55:00,
2013-05-18 22:10:00,52.7,46.0,29.92,NNW,344,0.0,0.0,79,0.00,,,0.01,weatherlink.com 1.10,2013-05-19 04:10:00,
2013-05-18 22:25:00,52.6,46.0,29.92,NNE,23,0.0,0.0,78,0.00,,,0.01,weatherlink.com 1.10,2013-05-19 04:25:00,
2013-05-18 22:40:00,52.7,47.0,29.92,West,281,0.0,0.0,81,0.00,,,0.01,weatherlink.com 1.10,2013-05-19 04:40:00,
2013-05-18 22:55:00,51.9,47.0,29.91,WNW,286,0.0,0.0,83,0.00,,,0.01,weatherlink.com 1.10,2013-05-19 04:55:00,
2013-05-18 23:10:00,51.2,46.0,29.91,WNW,300,0.0,0.0,83,0.00,,,0.01,weatherlink.com 1.10,2013-05-19 05:10:00,
2013-05-18 23:25:00,51.2,46.0,29.91,WNW,294,0.0,0.0,83,0.00,,,0.01,weatherlink.com 1.10,2013-05-19 05:25:00,
2013-05-18 23:40:00,51.3,47.0,29.91,WNW,294,0.0,0.0,85,0.00,,,0.01,weatherlink.com 1.10,2013-05-19 05:40:00,
2013-05-18 23:55:00,51.1,47.0,29.91,WNW,292,0.0,0.0,86,0.00,,,0.01,weatherlink.com 1.10,2013-05-19 05:55:00,